Time;durP1;ratioP1;P1;durP2;ratioP2;P2;SDS_P1;SDS_P2;PMS_P1;PMS_P2;Temp;Humidity;BMP_temperature;BMP_pressure;BME280_temperature;BME280_humidity;BME280_pressure;Samples;Min_cycle;Max_cycle;Signal;HPM_P1;HPM_P2
2024/04/07 08:06:03;;;;;;;1.70;0.90;;;16.60;99.90;;;;;;4925267;29;20222;-84
2024/04/07 08:08:36;;;;;;;3.37;1.10;;;16.90;99.90;;;;;;4940973;29;20201;-86
2024/04/07 08:11:03;;;;;;;2.30;0.90;;;17.10;99.90;;;;;;4933996;29;20222;-84
2024/04/07 08:13:30;;;;;;;3.53;0.63;;;17.20;99.90;;;;;;4929319;29;20209;-84
2024/04/07 08:15:57;;;;;;;2.17;0.60;;;17.30;99.90;;;;;;4926655;29;20238;-84
2024/04/07 08:18:42;;;;;;;3.40;0.70;;;17.40;99.90;;;;;;4925500;29;20206;-86
2024/04/07 08:21:11;;;;;;;2.90;0.70;;;17.40;99.90;;;;;;4927505;29;20257;-83
2024/04/07 08:23:37;;;;;;;2.97;0.80;;;17.50;99.90;;;;;;4918467;29;20206;-83
2024/04/07 08:26:05;;;;;;;1.63;0.53;;;17.60;99.90;;;;;;4923158;29;20321;-83
2024/04/07 08:28:41;;;;;;;0.93;0.60;;;17.50;99.90;;;;;;4922266;29;20297;-83
2024/04/07 08:31:09;;;;;;;1.37;0.50;;;17.50;99.90;;;;;;4918726;29;22093;-82
2024/04/07 08:33:38;;;;;;;1.37;0.40;;;17.60;99.90;;;;;;4921153;29;20210;-83
2024/04/07 08:36:17;;;;;;;1.70;0.60;;;17.60;99.90;;;;;;4927623;29;20226;-83
2024/04/07 08:38:45;;;;;;;2.43;0.50;;;17.70;99.90;;;;;;4921355;29;20214;-86
2024/04/07 08:41:12;;;;;;;2.00;0.40;;;17.70;99.90;;;;;;4923367;29;20246;-83
2024/04/07 08:43:41;;;;;;;2.97;0.60;;;17.90;99.90;;;;;;4926160;29;20214;-83
2024/04/07 08:46:13;;;;;;;2.03;0.50;;;17.90;99.90;;;;;;4921446;29;20233;-83
2024/04/07 08:49:04;;;;;;;0.77;0.50;;;18.00;99.90;;;;;;4924327;29;20206;-83
2024/04/07 08:51:33;;;;;;;0.93;0.40;;;18.10;99.90;;;;;;4923289;29;20558;-84
2024/04/07 08:54:08;;;;;;;1.13;0.50;;;18.20;99.90;;;;;;4921479;29;20293;-83
2024/04/07 08:56:41;;;;;;;3.33;0.60;;;18.30;99.90;;;;;;4922525;29;20644;-83
2024/04/07 08:59:09;;;;;;;1.80;0.47;;;18.30;99.90;;;;;;4932347;29;20201;-83
2024/04/07 09:01:43;;;;;;;1.20;0.60;;;18.30;99.90;;;;;;4930401;29;20313;-82
2024/04/07 09:04:11;;;;;;;2.47;0.50;;;18.30;99.90;;;;;;4918401;29;20210;-83
2024/04/07 09:06:39;;;;;;;2.33;0.50;;;18.30;99.90;;;;;;4923577;29;20222;-83
2024/04/07 09:14:58;;;;;;;1.63;0.80;;;18.20;99.90;;;;;;4936114;29;20642;-87
2024/04/07 09:17:33;;;;;;;2.23;1.00;;;18.10;99.90;;;;;;4917432;29;20238;-85
2024/04/07 09:20:06;;;;;;;2.00;0.80;;;18.00;99.90;;;;;;4928720;29;20213;-83
2024/04/07 09:22:34;;;;;;;1.53;0.60;;;18.00;99.90;;;;;;4932125;29;20234;-86
2024/04/07 09:25:02;;;;;;;1.53;0.90;;;17.90;99.90;;;;;;4929046;29;20198;-83
2024/04/07 09:27:29;;;;;;;2.00;0.80;;;17.80;99.90;;;;;;4928901;29;20295;-84
2024/04/07 09:33:09;;;;;;;0.80;0.53;;;17.80;99.90;;;;;;4920601;29;20195;-84
2024/04/07 09:35:36;;;;;;;2.93;0.70;;;17.80;99.90;;;;;;4925652;29;20226;-83
2024/04/07 09:38:05;;;;;;;2.20;0.70;;;17.90;99.90;;;;;;4932737;29;20198;-83
2024/04/07 09:40:33;;;;;;;2.70;0.70;;;17.90;99.90;;;;;;4921741;29;20210;-83
2024/04/07 09:43:04;;;;;;;3.70;0.87;;;18.10;99.90;;;;;;4922291;29;20337;-83
2024/04/07 09:45:30;;;;;;;1.47;0.60;;;18.00;99.90;;;;;;4922598;29;20218;-83
2024/04/07 09:48:09;;;;;;;2.80;0.80;;;17.90;99.90;;;;;;4926089;29;20250;-83
2024/04/07 09:50:45;;;;;;;1.30;0.67;;;17.90;99.90;;;;;;4924424;29;20568;-83
2024/04/07 09:56:27;;;;;;;2.33;0.60;;;18.00;99.90;;;;;;4932234;29;20575;-84
2024/04/07 09:58:59;;;;;;;1.40;0.63;;;18.00;99.90;;;;;;4930836;29;20214;-83
2024/04/07 10:01:28;;;;;;;1.13;0.67;;;18.00;99.90;;;;;;4911852;29;20260;-83
2024/04/07 10:03:56;;;;;;;2.03;0.80;;;18.00;99.90;;;;;;4924278;29;20222;-84
2024/04/07 10:06:25;;;;;;;1.97;0.80;;;18.00;99.90;;;;;;4923356;29;20503;-84
2024/04/07 10:09:11;;;;;;;1.70;0.50;;;18.20;99.90;;;;;;4923786;29;20205;-83
2024/04/07 10:14:38;;;;;;;1.07;0.50;;;18.30;99.90;;;;;;4935394;29;20205;-83
2024/04/07 10:17:06;;;;;;;2.10;0.70;;;18.40;99.90;;;;;;4926753;29;20314;-85
2024/04/07 10:19:33;;;;;;;0.90;0.40;;;18.50;99.90;;;;;;4926997;29;20293;-84
2024/04/07 10:22:01;;;;;;;1.47;0.50;;;18.70;99.90;;;;;;4933709;29;20254;-84
2024/04/07 10:24:30;;;;;;;1.37;0.63;;;18.80;99.90;;;;;;4925813;29;20622;-84
2024/04/07 10:26:59;;;;;;;1.33;0.60;;;18.90;99.90;;;;;;4927337;29;20219;-84
2024/04/07 10:29:26;;;;;;;1.90;0.67;;;19.00;99.90;;;;;;4919768;29;20241;-85
2024/04/07 10:31:52;;;;;;;2.33;0.50;;;19.00;99.90;;;;;;4926938;29;20289;-85
2024/04/07 10:34:19;;;;;;;0.63;0.40;;;19.00;99.90;;;;;;4927262;29;20210;-85
2024/04/07 10:36:52;;;;;;;1.53;0.47;;;18.90;99.90;;;;;;4919714;29;20715;-85
2024/04/07 10:39:21;;;;;;;1.83;0.60;;;18.80;99.90;;;;;;4917596;29;20199;-85
2024/04/07 10:41:48;;;;;;;3.17;0.50;;;18.90;99.90;;;;;;4915851;29;20317;-85
2024/04/07 10:44:15;;;;;;;1.67;0.47;;;19.10;99.90;;;;;;4920084;29;20238;-85
2024/04/07 10:46:41;;;;;;;1.77;0.40;;;19.40;99.90;;;;;;4916046;29;20231;-85
2024/04/07 10:49:08;;;;;;;2.23;0.50;;;19.60;99.90;;;;;;4925606;29;20221;-85
2024/04/07 10:51:34;;;;;;;1.07;0.30;;;19.60;99.90;;;;;;4921848;29;20199;-84
2024/04/07 10:54:03;;;;;;;2.60;0.60;;;19.60;99.90;;;;;;4923915;29;20242;-84
2024/04/07 10:56:29;;;;;;;2.93;0.60;;;19.60;99.90;;;;;;4917861;29;20232;-83
2024/04/07 10:58:58;;;;;;;2.73;0.40;;;19.70;99.90;;;;;;4924968;29;20218;-83
2024/04/07 11:01:24;;;;;;;1.27;0.50;;;19.60;99.90;;;;;;4923144;29;20271;-84
2024/04/07 11:03:53;;;;;;;3.97;0.80;;;19.50;99.90;;;;;;4918882;29;20214;-83
2024/04/07 11:06:20;;;;;;;0.63;0.30;;;19.60;99.90;;;;;;4918998;29;20299;-84
2024/04/07 11:08:48;;;;;;;2.27;0.47;;;19.70;99.90;;;;;;4925177;29;20197;-84
2024/04/07 11:11:14;;;;;;;1.63;0.60;;;19.80;99.90;;;;;;4923068;29;20255;-85
2024/04/07 11:13:41;;;;;;;2.00;0.40;;;19.90;99.90;;;;;;4931501;29;20240;-84
2024/04/07 11:16:09;;;;;;;1.20;0.50;;;20.00;99.90;;;;;;4926070;29;20306;-85
2024/04/07 11:18:38;;;;;;;2.00;0.40;;;20.10;99.90;;;;;;4928883;29;20376;-84
2024/04/07 11:21:04;;;;;;;2.23;0.57;;;20.10;99.90;;;;;;4932239;29;20589;-84
2024/04/07 11:23:40;;;;;;;2.53;0.60;;;20.20;99.90;;;;;;4931756;29;20246;-85
2024/04/07 11:26:06;;;;;;;1.07;0.40;;;20.30;99.90;;;;;;4937903;29;20235;-85
2024/04/07 11:28:33;;;;;;;1.13;0.40;;;20.30;99.90;;;;;;4917306;29;20653;-85
2024/04/07 11:31:00;;;;;;;1.17;0.40;;;20.30;99.90;;;;;;4921244;29;20208;-85
2024/04/07 11:33:28;;;;;;;2.77;0.50;;;20.30;99.90;;;;;;4933117;29;20290;-84
2024/04/07 11:35:54;;;;;;;1.07;0.53;;;20.20;99.90;;;;;;4914241;29;20343;-84
2024/04/07 11:38:21;;;;;;;2.93;0.30;;;19.90;99.90;;;;;;4925526;29;20286;-84
2024/04/07 11:40:48;;;;;;;1.00;0.40;;;19.80;99.90;;;;;;4928058;29;20286;-84
2024/04/07 11:43:16;;;;;;;0.50;0.37;;;19.80;99.90;;;;;;4938692;29;20215;-84
2024/04/07 11:45:42;;;;;;;2.27;0.60;;;19.90;99.90;;;;;;4933820;29;20720;-85
2024/04/07 11:48:09;;;;;;;2.23;1.00;;;20.10;99.90;;;;;;4922619;29;20208;-85
2024/04/07 11:50:36;;;;;;;1.97;0.37;;;20.40;99.90;;;;;;4920356;29;20680;-86
2024/04/07 11:53:03;;;;;;;1.83;0.60;;;20.70;99.90;;;;;;4927432;29;20296;-85
2024/04/07 11:55:32;;;;;;;2.07;0.60;;;20.90;99.90;;;;;;4927179;29;20239;-88
2024/04/07 11:57:59;;;;;;;1.33;0.60;;;20.70;99.90;;;;;;4922194;29;20284;-85
2024/04/07 12:00:25;;;;;;;1.30;0.40;;;20.60;99.90;;;;;;4924107;29;20681;-85
2024/04/07 12:02:52;;;;;;;2.17;0.60;;;20.50;99.90;;;;;;4920340;29;20224;-85
2024/04/07 12:05:18;;;;;;;1.80;0.40;;;20.40;99.90;;;;;;4918515;29;20254;-83
2024/04/07 12:07:47;;;;;;;1.73;0.43;;;20.40;99.90;;;;;;4927436;29;20765;-84
2024/04/07 12:10:13;;;;;;;1.00;0.40;;;20.50;99.90;;;;;;4919954;29;20213;-85
2024/04/07 12:12:40;;;;;;;1.87;0.70;;;20.50;99.90;;;;;;4929863;29;20196;-85
2024/04/07 12:15:06;;;;;;;1.23;0.43;;;20.50;99.90;;;;;;4922311;29;20269;-84
2024/04/07 12:17:33;;;;;;;1.30;0.57;;;20.40;99.90;;;;;;4923644;29;20207;-85
2024/04/07 12:19:59;;;;;;;2.77;0.50;;;20.40;99.90;;;;;;4928682;29;20753;-85
2024/04/07 12:22:36;;;;;;;0.67;0.30;;;20.70;99.90;;;;;;4949294;29;20263;-83
2024/04/07 12:25:04;;;;;;;2.37;0.47;;;21.00;99.90;;;;;;4924905;29;20205;-85
2024/04/07 12:27:31;;;;;;;2.07;0.57;;;21.10;99.90;;;;;;4918991;29;20233;-85
2024/04/07 12:29:57;;;;;;;1.50;0.47;;;21.00;99.90;;;;;;4933751;29;20204;-86
2024/04/07 12:32:54;;;;;;;1.23;0.50;;;20.80;99.90;;;;;;4932920;29;20272;-86
2024/04/07 12:35:20;;;;;;;3.07;0.50;;;20.90;99.90;;;;;;4927261;29;20359;-85
2024/04/07 12:37:47;;;;;;;1.13;0.50;;;20.70;99.90;;;;;;4931031;29;20210;-86
2024/04/07 12:40:15;;;;;;;1.70;0.53;;;20.70;99.90;;;;;;4924432;29;20741;-86
2024/04/07 12:42:44;;;;;;;1.43;0.50;;;20.80;99.90;;;;;;4926420;29;20614;-85
2024/04/07 12:45:10;;;;;;;1.47;0.40;;;20.90;99.90;;;;;;4932139;29;20618;-86
2024/04/07 12:47:37;;;;;;;1.33;0.50;;;21.10;99.90;;;;;;4936214;29;20201;-86
2024/04/07 12:50:04;;;;;;;3.73;0.70;;;21.10;99.90;;;;;;4925832;29;20296;-87
2024/04/07 12:52:35;;;;;;;1.80;0.50;;;21.30;99.90;;;;;;4925010;29;20232;-85
2024/04/07 12:55:01;;;;;;;1.57;0.37;;;21.30;99.90;;;;;;4932663;29;20202;-84
2024/04/07 12:57:29;;;;;;;2.03;0.57;;;21.10;99.90;;;;;;4930204;29;20209;-86
2024/04/07 12:59:58;;;;;;;1.60;0.50;;;21.30;99.90;;;;;;4932171;29;20822;-84
2024/04/07 13:02:24;;;;;;;1.37;0.47;;;21.50;99.90;;;;;;4928914;29;20244;-84
2024/04/07 13:04:50;;;;;;;1.07;0.50;;;21.50;99.90;;;;;;4933046;29;20637;-84
2024/04/07 13:07:17;;;;;;;0.97;0.60;;;21.60;99.90;;;;;;4944643;29;20308;-84
2024/04/07 13:09:43;;;;;;;1.53;0.60;;;21.50;99.90;;;;;;4933565;29;20297;-84
2024/04/07 13:12:10;;;;;;;1.00;0.63;;;21.60;99.90;;;;;;4937973;29;20285;-83
2024/04/07 13:14:37;;;;;;;0.90;0.50;;;21.70;99.90;;;;;;4931327;29;20297;-83
2024/04/07 13:17:04;;;;;;;2.83;0.60;;;21.70;99.90;;;;;;4930200;29;20227;-84
2024/04/07 13:19:30;;;;;;;0.97;0.57;;;21.80;99.90;;;;;;4930348;29;20767;-84
2024/04/07 13:21:57;;;;;;;1.50;0.40;;;22.00;99.90;;;;;;4926929;29;20289;-85
2024/04/07 13:24:23;;;;;;;1.60;0.50;;;22.50;99.90;;;;;;4921428;29;20234;-85
2024/04/07 13:26:50;;;;;;;3.20;0.60;;;22.60;99.90;;;;;;4926198;29;20692;-84
2024/04/07 13:29:16;;;;;;;4.40;0.80;;;22.80;99.90;;;;;;4919078;29;20777;-83
2024/04/07 13:31:44;;;;;;;2.53;0.50;;;22.70;99.90;;;;;;4925810;29;20229;-86
2024/04/07 13:34:10;;;;;;;1.50;0.53;;;22.70;99.90;;;;;;4923854;29;20230;-85
2024/04/07 13:36:37;;;;;;;1.47;0.80;;;22.90;99.90;;;;;;4927170;29;20698;-84
2024/04/07 13:39:03;;;;;;;1.90;0.40;;;23.60;99.90;;;;;;4931508;29;20293;-84
2024/04/07 13:41:30;;;;;;;0.73;0.40;;;24.20;99.90;;;;;;4944329;29;20197;-84
2024/04/07 13:43:56;;;;;;;0.80;0.40;;;24.50;99.90;;;;;;4919999;29;20248;-84
2024/04/07 13:46:23;;;;;;;1.90;0.60;;;24.60;99.90;;;;;;4929878;29;20712;-84
2024/04/07 13:48:50;;;;;;;3.00;0.60;;;24.70;99.90;;;;;;4932664;29;20213;-84
2024/04/07 13:51:18;;;;;;;1.63;0.40;;;24.80;99.90;;;;;;4929945;29;20230;-84
2024/04/07 13:53:44;;;;;;;1.27;0.63;;;24.60;99.90;;;;;;4931238;29;20263;-84
2024/04/07 13:56:11;;;;;;;2.57;0.67;;;24.10;99.90;;;;;;4926776;29;20229;-84
2024/04/07 13:58:37;;;;;;;1.40;0.60;;;24.30;99.90;;;;;;4934194;29;20230;-84
2024/04/07 16:25:37;;;;;;;2.37;0.57;;;24.50;96.90;;;;;;4967674;28;20265;-84
2024/04/07 16:28:07;;;;;;;0.87;0.30;;;24.90;97.10;;;;;;4967426;28;20197;-83
2024/04/07 16:30:33;;;;;;;2.23;0.67;;;24.60;96.90;;;;;;4976110;28;20636;-83
2024/04/07 16:32:59;;;;;;;1.33;0.40;;;24.10;97.60;;;;;;4970237;28;20261;-83
2024/04/07 16:35:25;;;;;;;0.70;0.50;;;23.60;97.80;;;;;;4957555;29;20240;-83
2024/04/07 16:37:52;;;;;;;2.30;0.57;;;23.20;98.30;;;;;;4968319;23;20261;-86
2024/04/07 16:40:18;;;;;;;2.70;0.60;;;22.90;98.40;;;;;;4963129;28;20224;-87
2024/04/07 16:42:47;;;;;;;1.00;0.67;;;22.30;98.70;;;;;;4973816;28;20304;-87
2024/04/07 16:45:13;;;;;;;1.67;0.40;;;22.00;98.80;;;;;;4975849;28;20212;-87
2024/04/07 16:47:40;;;;;;;2.67;0.40;;;21.80;99.60;;;;;;4960594;28;20308;-86
2024/04/07 16:50:06;;;;;;;1.43;0.40;;;21.70;99.90;;;;;;4951230;28;20735;-86
2024/04/07 16:52:33;;;;;;;1.63;0.23;;;21.60;99.80;;;;;;4955853;29;20236;-85
2024/04/07 16:55:00;;;;;;;0.70;0.50;;;21.40;99.90;;;;;;4954850;29;20280;-87
2024/04/07 16:57:27;;;;;;;0.60;0.40;;;21.40;99.90;;;;;;4949739;29;20304;-85
2024/04/07 16:59:58;;;;;;;1.10;0.50;;;21.40;99.90;;;;;;4949664;28;20725;-87
2024/04/07 17:02:26;;;;;;;0.83;0.60;;;21.40;99.90;;;;;;4955232;28;20731;-86
2024/04/07 17:04:52;;;;;;;2.23;0.43;;;21.30;99.90;;;;;;4956013;29;20280;-87
2024/04/07 17:07:21;;;;;;;1.60;0.70;;;21.20;99.90;;;;;;4953986;28;20481;-87
2024/04/07 17:09:47;;;;;;;2.83;0.60;;;21.20;99.90;;;;;;4953503;29;20574;-86
2024/04/07 17:12:14;;;;;;;1.63;0.33;;;21.30;99.90;;;;;;4945974;29;20260;-85
2024/04/07 17:14:40;;;;;;;2.37;0.67;;;21.30;99.90;;;;;;4952488;29;20353;-87
2024/04/07 17:17:08;;;;;;;1.00;0.40;;;21.10;99.90;;;;;;4955424;28;20224;-86
2024/04/07 17:19:34;;;;;;;1.30;0.50;;;21.00;99.90;;;;;;4952398;29;20209;-86
2024/04/07 17:22:00;;;;;;;2.10;0.70;;;21.00;99.90;;;;;;4946579;28;20316;-87
2024/04/07 17:24:26;;;;;;;0.60;0.60;;;21.00;99.90;;;;;;4935377;29;20228;-88
2024/04/07 17:26:53;;;;;;;0.77;0.43;;;21.00;99.90;;;;;;4954260;28;20777;-88
2024/04/07 17:29:19;;;;;;;1.37;0.60;;;21.00;99.90;;;;;;4954002;29;20280;-87
2024/04/07 17:31:46;;;;;;;1.57;0.50;;;21.00;99.90;;;;;;4944465;28;20205;-88
2024/04/07 17:34:13;;;;;;;4.30;0.63;;;21.00;99.90;;;;;;4943449;28;20217;-88
2024/04/07 17:36:42;;;;;;;1.07;0.50;;;21.00;99.90;;;;;;4931616;29;20825;-88
2024/04/07 17:39:08;;;;;;;2.27;0.50;;;21.00;99.90;;;;;;4938029;28;20248;-87
2024/04/07 17:41:35;;;;;;;0.63;0.47;;;21.00;99.90;;;;;;4951497;28;20550;-87
2024/04/07 17:44:01;;;;;;;4.10;0.70;;;21.00;99.90;;;;;;4959342;28;20249;-87
2024/04/07 17:46:28;;;;;;;3.37;0.60;;;21.00;99.90;;;;;;4946497;28;20703;-87
2024/04/07 17:48:53;;;;;;;0.90;0.50;;;21.10;99.90;;;;;;4953217;28;20205;-87
2024/04/07 17:51:22;;;;;;;2.40;0.60;;;21.20;99.90;;;;;;4936145;28;20313;-87
2024/04/07 17:53:48;;;;;;;1.23;0.60;;;21.20;99.90;;;;;;4957232;28;20292;-87
2024/04/07 17:56:15;;;;;;;1.53;0.40;;;21.20;99.90;;;;;;4947399;28;20311;-87
2024/04/07 17:58:41;;;;;;;1.70;0.40;;;21.10;99.90;;;;;;4947139;28;20678;-85
2024/04/07 18:01:10;;;;;;;0.70;0.50;;;21.10;99.90;;;;;;4947577;28;20201;-86
2024/04/07 18:03:36;;;;;;;1.47;0.50;;;21.00;99.90;;;;;;4949907;28;20236;-86
2024/04/07 18:06:03;;;;;;;0.77;0.63;;;21.00;99.90;;;;;;4951985;29;20201;-86
2024/04/07 18:08:30;;;;;;;1.33;0.70;;;21.10;99.90;;;;;;4951652;29;20300;-85
2024/04/07 18:10:57;;;;;;;1.83;0.70;;;21.00;99.90;;;;;;4951389;28;20563;-86
2024/04/07 18:13:23;;;;;;;2.37;1.00;;;21.00;99.90;;;;;;4950929;28;20292;-85
2024/04/07 18:15:50;;;;;;;1.07;0.53;;;21.00;99.90;;;;;;4950516;28;20284;-86
2024/04/07 18:18:16;;;;;;;1.83;0.70;;;21.00;99.90;;;;;;4952342;28;20651;-86
2024/04/07 18:20:44;;;;;;;2.33;0.90;;;20.90;99.90;;;;;;4949161;29;20201;-86
2024/04/07 18:23:10;;;;;;;3.30;0.60;;;20.80;99.90;;;;;;4950657;29;20597;-86
2024/04/07 18:25:38;;;;;;;2.07;0.70;;;20.80;99.90;;;;;;4951199;28;20284;-87
2024/04/07 18:28:04;;;;;;;0.97;0.60;;;20.60;99.90;;;;;;4946815;28;20634;-86
2024/04/07 18:30:32;;;;;;;0.40;0.40;;;20.60;99.90;;;;;;4947941;29;20318;-86
2024/04/07 18:32:58;;;;;;;2.17;0.70;;;20.50;99.90;;;;;;4947182;28;20614;-85
2024/04/07 18:35:25;;;;;;;1.13;0.63;;;20.50;99.90;;;;;;4949420;29;20279;-85
2024/04/07 18:37:51;;;;;;;2.20;0.70;;;20.40;99.90;;;;;;4951179;28;20249;-86
2024/04/07 18:40:21;;;;;;;1.27;0.50;;;20.40;99.90;;;;;;4949488;29;20197;-85
2024/04/07 18:42:51;;;;;;;1.90;0.57;;;20.40;99.90;;;;;;4948961;28;20745;-85
2024/04/07 18:45:18;;;;;;;2.90;0.50;;;20.30;99.90;;;;;;4948946;28;20192;-85
2024/04/07 18:47:44;;;;;;;1.97;0.40;;;20.20;99.90;;;;;;4952182;28;20753;-85
2024/04/07 18:50:10;;;;;;;1.37;0.53;;;20.30;99.90;;;;;;4951324;28;20288;-85
2024/04/07 18:52:36;;;;;;;0.57;0.40;;;20.20;99.90;;;;;;4938943;28;20243;-86
2024/04/07 18:55:03;;;;;;;3.53;0.77;;;20.20;99.90;;;;;;4942830;28;20281;-85
2024/04/07 18:57:29;;;;;;;1.07;0.70;;;20.20;99.90;;;;;;4943751;28;20225;-86
2024/04/07 18:59:58;;;;;;;2.13;0.63;;;20.20;99.90;;;;;;4941582;29;20212;-85
2024/04/07 19:02:25;;;;;;;1.07;0.50;;;20.10;99.90;;;;;;4948769;29;20208;-85
2024/04/07 19:04:52;;;;;;;4.00;0.67;;;20.00;99.90;;;;;;4951633;29;20759;-86
2024/04/07 19:07:18;;;;;;;1.30;0.60;;;20.00;99.90;;;;;;4949508;28;20295;-85
2024/04/07 19:09:45;;;;;;;2.27;0.70;;;20.00;99.90;;;;;;4949935;29;20282;-86
2024/04/07 19:12:11;;;;;;;1.30;0.80;;;20.00;99.90;;;;;;4951754;29;20197;-86
2024/04/07 19:14:37;;;;;;;1.03;0.60;;;20.10;99.90;;;;;;4949946;29;20299;-86
2024/04/07 19:17:05;;;;;;;2.23;0.60;;;20.10;99.90;;;;;;4944189;28;20228;-86
2024/04/07 19:19:32;;;;;;;0.80;0.60;;;20.10;99.90;;;;;;4944506;28;20924;-86
2024/04/07 19:21:58;;;;;;;2.57;0.93;;;20.10;99.90;;;;;;4951894;29;20691;-85
2024/04/07 19:24:25;;;;;;;1.80;0.60;;;20.10;99.90;;;;;;4951696;29;20314;-85
2024/04/07 19:26:51;;;;;;;1.53;0.60;;;20.00;99.90;;;;;;4952176;28;20318;-85
2024/04/07 19:29:17;;;;;;;1.10;0.60;;;20.00;99.90;;;;;;4947817;28;20329;-85
2024/04/07 19:31:46;;;;;;;2.60;0.50;;;19.80;99.90;;;;;;4950739;28;20208;-85
2024/04/07 19:34:15;;;;;;;1.13;0.50;;;19.60;99.90;;;;;;4948550;28;20553;-85
2024/04/07 19:36:40;;;;;;;2.30;0.63;;;19.60;99.90;;;;;;4948170;28;20797;-85
2024/04/07 19:39:07;;;;;;;1.13;0.67;;;19.50;99.90;;;;;;4938238;28;20297;-85
2024/04/07 19:41:33;;;;;;;3.80;0.60;;;19.40;99.90;;;;;;4948032;28;20219;-85
2024/04/07 19:44:00;;;;;;;1.20;0.43;;;19.30;99.90;;;;;;4946192;29;20226;-84
2024/04/07 19:46:26;;;;;;;2.10;0.70;;;19.20;99.90;;;;;;4950746;28;20220;-85
2024/04/07 19:48:53;;;;;;;1.13;0.60;;;19.10;99.90;;;;;;4952551;28;20200;-84
2024/04/07 19:51:20;;;;;;;0.63;0.40;;;19.10;99.90;;;;;;4932007;28;20214;-85
2024/04/07 19:53:48;;;;;;;2.77;0.70;;;19.10;99.90;;;;;;4940074;28;20344;-85
2024/04/07 19:56:15;;;;;;;1.90;0.70;;;19.10;99.90;;;;;;4948621;29;20563;-84
2024/04/07 19:58:42;;;;;;;2.87;0.73;;;19.20;99.90;;;;;;4946823;28;20869;-85
2024/04/07 20:01:08;;;;;;;1.40;0.50;;;19.20;99.90;;;;;;4946430;28;20295;-85
2024/04/07 20:03:34;;;;;;;2.27;0.80;;;19.10;99.90;;;;;;4946860;29;20228;-86
2024/04/07 20:06:02;;;;;;;1.80;0.73;;;19.10;99.90;;;;;;4937935;28;20274;-85
2024/04/07 20:08:30;;;;;;;1.33;0.60;;;19.00;99.90;;;;;;4939619;28;20234;-85
2024/04/07 20:10:58;;;;;;;3.20;0.90;;;18.90;99.90;;;;;;4946784;28;20650;-85
2024/04/07 20:13:26;;;;;;;0.90;0.67;;;18.90;99.90;;;;;;4945728;28;20265;-85
2024/04/07 20:15:52;;;;;;;0.93;0.60;;;18.90;99.90;;;;;;4944153;28;20688;-86
2024/04/07 20:18:19;;;;;;;2.33;0.80;;;18.90;99.90;;;;;;4948237;29;20215;-85
2024/04/07 20:20:47;;;;;;;3.73;0.80;;;18.90;99.90;;;;;;4948046;28;20198;-88
2024/04/07 20:23:14;;;;;;;1.70;0.70;;;18.90;99.90;;;;;;4951589;28;20686;-87
2024/04/07 20:25:41;;;;;;;1.03;0.53;;;18.90;99.90;;;;;;4941674;29;20624;-86
2024/04/07 20:28:08;;;;;;;2.07;0.60;;;19.00;99.90;;;;;;4948647;28;20261;-87
2024/04/07 20:30:34;;;;;;;2.97;0.60;;;19.00;99.90;;;;;;4947408;29;20225;-86
2024/04/07 20:33:01;;;;;;;1.63;0.60;;;18.90;99.90;;;;;;4945668;29;20291;-86
2024/04/07 20:35:27;;;;;;;1.53;0.60;;;18.90;99.90;;;;;;4949079;29;20222;-86
2024/04/07 20:37:54;;;;;;;1.73;0.80;;;18.90;99.90;;;;;;4950111;28;20226;-85
2024/04/07 20:40:20;;;;;;;2.67;0.53;;;18.80;99.90;;;;;;4952332;28;20244;-85
2024/04/07 20:42:48;;;;;;;1.00;0.70;;;18.80;99.90;;;;;;4945333;29;20202;-86
2024/04/07 20:45:14;;;;;;;0.90;0.70;;;18.80;99.90;;;;;;4942610;28;20318;-86
2024/04/07 20:47:41;;;;;;;2.60;0.80;;;18.80;99.90;;;;;;4944433;28;20766;-86
2024/04/07 20:50:08;;;;;;;2.40;0.80;;;18.70;99.90;;;;;;4943436;29;20209;-86
2024/04/07 20:52:35;;;;;;;2.47;0.87;;;18.60;99.90;;;;;;4945568;29;20232;-87
2024/04/07 20:55:02;;;;;;;4.30;0.87;;;18.60;99.90;;;;;;4951322;29;20201;-86
2024/04/07 20:57:29;;;;;;;2.17;0.60;;;18.50;99.90;;;;;;4949682;28;20693;-86
2024/04/07 20:59:56;;;;;;;1.37;0.83;;;18.50;99.90;;;;;;4950872;28;20209;-86
2024/04/07 21:02:23;;;;;;;3.37;0.93;;;18.50;99.90;;;;;;4949153;29;20676;-86
2024/04/07 21:04:49;;;;;;;2.90;0.63;;;18.50;99.90;;;;;;4946764;28;20473;-87
2024/04/07 21:07:16;;;;;;;1.77;0.80;;;18.50;99.90;;;;;;4950596;28;20217;-86
2024/04/07 21:09:43;;;;;;;2.53;1.00;;;18.40;99.90;;;;;;4953584;29;20296;-86
2024/04/07 21:12:10;;;;;;;2.77;1.00;;;18.40;99.90;;;;;;4954573;29;20193;-85
2024/04/07 21:14:36;;;;;;;2.67;0.70;;;18.40;99.90;;;;;;4957833;29;20273;-85
2024/04/07 21:17:04;;;;;;;2.33;0.77;;;18.30;99.90;;;;;;4948205;28;20222;-85
2024/04/07 21:19:30;;;;;;;1.73;0.60;;;18.30;99.90;;;;;;4948964;29;20273;-86
2024/04/07 21:21:57;;;;;;;4.00;0.90;;;18.20;99.90;;;;;;4954992;29;20280;-87
2024/04/07 21:24:23;;;;;;;1.93;0.80;;;18.20;99.90;;;;;;4953155;29;20312;-86
2024/04/07 21:26:50;;;;;;;2.93;0.90;;;18.20;99.90;;;;;;4955067;28;20317;-86
2024/04/07 21:29:16;;;;;;;1.70;1.00;;;18.20;99.90;;;;;;4952020;28;20717;-86
2024/04/07 21:31:43;;;;;;;1.13;0.77;;;18.20;99.90;;;;;;4955803;29;20551;-86
2024/04/07 21:34:10;;;;;;;1.43;0.77;;;18.10;99.90;;;;;;4954295;29;20193;-86
2024/04/07 21:36:37;;;;;;;5.03;1.00;;;18.10;99.90;;;;;;4949210;28;20280;-86
2024/04/07 21:39:03;;;;;;;2.37;1.30;;;18.00;99.90;;;;;;4953593;28;20288;-86
2024/04/07 21:41:30;;;;;;;2.60;0.87;;;17.90;99.90;;;;;;4951587;28;20201;-86
2024/04/07 21:43:56;;;;;;;1.80;0.83;;;17.90;99.90;;;;;;4952688;29;20758;-87
2024/04/07 21:46:24;;;;;;;1.63;0.70;;;17.80;99.90;;;;;;4953804;28;20344;-86
2024/04/07 21:48:50;;;;;;;3.77;0.83;;;17.90;99.90;;;;;;4954823;29;20209;-87
2024/04/07 21:51:18;;;;;;;1.30;0.80;;;17.80;99.90;;;;;;4953931;28;20256;-86
2024/04/07 21:53:44;;;;;;;2.30;0.90;;;17.80;99.90;;;;;;4950136;28;20204;-86
2024/04/07 21:56:12;;;;;;;0.97;0.60;;;17.70;99.90;;;;;;4950553;29;20222;-86
2024/04/07 21:58:38;;;;;;;2.80;1.10;;;17.70;99.90;;;;;;4938960;29;20252;-87
2024/04/07 22:01:04;;;;;;;2.37;0.70;;;17.60;99.90;;;;;;4952310;29;20288;-86
2024/04/07 22:03:32;;;;;;;1.67;0.90;;;17.60;99.90;;;;;;4949716;29;20324;-86
2024/04/07 22:05:59;;;;;;;3.30;0.80;;;17.60;99.90;;;;;;4951002;29;20210;-86
2024/04/07 22:08:28;;;;;;;3.87;1.10;;;17.60;99.90;;;;;;4951108;29;20201;-86
2024/04/07 22:10:53;;;;;;;2.43;0.70;;;17.50;99.90;;;;;;4946638;29;20324;-86
2024/04/07 22:13:20;;;;;;;2.37;0.97;;;17.40;99.90;;;;;;4941725;29;20281;-87
2024/04/07 22:15:46;;;;;;;2.90;0.90;;;17.30;99.90;;;;;;4948154;28;20208;-86
2024/04/07 22:18:15;;;;;;;1.33;0.80;;;17.20;99.90;;;;;;4947970;28;20270;-86
2024/04/07 22:20:41;;;;;;;2.53;1.03;;;17.20;99.90;;;;;;4949033;29;20211;-87
2024/04/07 22:23:08;;;;;;;2.53;0.93;;;17.20;99.90;;;;;;4947112;29;20198;-86
2024/04/07 22:25:35;;;;;;;5.17;1.00;;;17.10;99.90;;;;;;4948239;29;20225;-86
2024/04/07 22:28:02;;;;;;;1.87;0.80;;;17.00;99.90;;;;;;4948325;28;20760;-86
2024/04/07 22:30:28;;;;;;;1.07;0.87;;;17.00;99.90;;;;;;4949143;28;20574;-85
2024/04/07 22:32:55;;;;;;;2.13;1.07;;;17.00;99.90;;;;;;4952098;29;20284;-85
2024/04/07 22:35:21;;;;;;;3.33;0.93;;;17.00;99.90;;;;;;4945902;29;20597;-85
2024/04/07 22:37:48;;;;;;;3.67;1.00;;;17.00;99.90;;;;;;4953715;29;20702;-89
2024/04/07 22:40:14;;;;;;;1.50;0.90;;;17.00;99.90;;;;;;4950588;29;20293;-88
2024/04/07 22:42:42;;;;;;;2.37;1.00;;;17.00;99.90;;;;;;4947128;29;20220;-88
2024/04/07 22:45:08;;;;;;;2.60;1.00;;;17.00;99.90;;;;;;4945673;29;20304;-88
2024/04/07 22:47:36;;;;;;;2.33;1.00;;;17.00;99.90;;;;;;4947453;28;20659;-88
2024/04/07 22:50:03;;;;;;;2.10;1.20;;;16.90;99.90;;;;;;4954501;28;20205;-88
2024/04/07 22:52:30;;;;;;;2.37;0.87;;;16.90;99.90;;;;;;4945748;29;20193;-89
2024/04/07 22:54:56;;;;;;;1.83;0.87;;;16.90;99.90;;;;;;4941297;29;20212;-89
2024/04/07 22:57:23;;;;;;;2.60;0.97;;;16.80;99.90;;;;;;4949971;28;20268;-88
2024/04/07 22:59:52;;;;;;;3.40;1.30;;;16.80;99.90;;;;;;4942353;29;20250;-89
2024/04/07 23:02:19;;;;;;;2.23;1.20;;;16.80;99.90;;;;;;4951563;29;20635;-89
2024/04/07 23:04:47;;;;;;;3.07;1.07;;;16.80;99.90;;;;;;4949080;29;20217;-89
2024/04/07 23:07:14;;;;;;;2.13;1.17;;;16.70;99.90;;;;;;4949762;28;20581;-88
2024/04/07 23:09:40;;;;;;;1.30;0.80;;;16.60;99.90;;;;;;4950221;29;20210;-89
2024/04/07 23:12:08;;;;;;;4.60;1.17;;;16.60;99.90;;;;;;4944795;29;20223;-89
2024/04/07 23:14:34;;;;;;;1.40;1.10;;;16.60;99.90;;;;;;4950715;28;20208;-89
2024/04/07 23:17:02;;;;;;;2.70;1.30;;;16.50;99.90;;;;;;4950504;28;20226;-88
2024/04/07 23:19:28;;;;;;;2.30;0.90;;;16.50;99.90;;;;;;4947572;29;20210;-88
2024/04/07 23:21:55;;;;;;;2.17;0.87;;;16.50;99.90;;;;;;4945942;28;20254;-89
2024/04/07 23:24:20;;;;;;;3.77;1.30;;;16.40;99.90;;;;;;4948522;29;20518;-89
2024/04/07 23:26:47;;;;;;;3.67;1.17;;;16.40;99.90;;;;;;4945776;29;20672;-88
2024/04/07 23:29:19;;;;;;;1.77;1.03;;;16.30;99.90;;;;;;4946655;29;20206;-89
2024/04/07 23:31:47;;;;;;;1.43;1.10;;;16.20;99.90;;;;;;4948041;28;20663;-88
2024/04/07 23:34:15;;;;;;;1.37;1.00;;;16.10;99.90;;;;;;4949763;28;20225;-89